Terminal Aerodrome Forecast
Issued by NWS Blacksburg, VA

Home | Current Version | Previous Version | Text Only | Print | Product List | Glossary On
Versions: 1 2 3 4 5 6 7 8 9 10 11 12 13 14 15 16 17 18 19 20 21 22 23 24 25 26 27 28 29 30 31 32 33 34 35
000
FTUS41 KRNK 272341 RRA
TAFROA
TAF
KROA 272341Z 2800/2818 23008KT P6SM SCT050 BKN150 OVC250
     FM280300 24008KT P6SM VCTS BKN050CB OVC080
      TEMPO 2803/2806 5SM SHRA BR BKN035
     FM280600 27015G25KT P6SM OVC035
     FM281400 29016G30KT P6SM BKN045=

USA.gov is the U.S. government's official web portal to all federal, state and local government web resources and services.